Time;durP1;ratioP1;P1;durP2;ratioP2;P2;SDS_P1;SDS_P2;PMS_P1;PMS_P2;Temp;Humidity;BMP_temperature;BMP_pressure;BME280_temperature;BME280_humidity;BME280_pressure;Samples;Min_cycle;Max_cycle;Signal;HPM_P1;HPM_P2
2023/12/22 00:02:23;;;;;;;2.10;1.90;;;8.00;99.90;;;;;;5042077;28;20501;-81
2023/12/22 00:05:12;;;;;;;2.00;1.50;;;8.00;99.90;;;;;;5043422;28;20461;-82
2023/12/22 00:08:32;;;;;;;1.77;1.50;;;7.90;99.90;;;;;;5052193;28;20467;-80
2023/12/22 00:11:16;;;;;;;6.77;1.53;;;7.90;99.90;;;;;;5050310;28;20484;-83
2023/12/22 00:13:50;;;;;;;2.30;1.47;;;8.00;99.90;;;;;;5049872;28;20467;-83
2023/12/22 00:16:31;;;;;;;3.43;3.10;;;7.90;99.90;;;;;;5049296;28;20482;-81
2023/12/22 00:19:04;;;;;;;5.13;2.03;;;8.00;99.90;;;;;;5049939;28;20457;-82
2023/12/22 00:21:41;;;;;;;5.10;2.30;;;8.10;99.90;;;;;;5051437;28;20451;-81
2023/12/22 00:24:36;;;;;;;8.17;2.53;;;8.10;99.90;;;;;;5051027;28;20702;-84
2023/12/22 00:30:24;;;;;;;5.43;2.20;;;8.10;99.90;;;;;;5045213;28;20464;-80
2023/12/22 00:33:15;;;;;;;6.83;2.57;;;8.10;99.90;;;;;;5043522;28;21009;-81
2023/12/22 00:36:22;;;;;;;;;;;;;;;;;;;;;
2023/12/22 00:45:26;;;;;;;2.70;2.10;;;7.60;99.90;;;;;;5053009;28;20448;-83
2023/12/22 00:48:11;;;;;;;2.57;1.80;;;7.60;99.90;;;;;;5050461;28;20482;-81
2023/12/22 00:51:06;;;;;;;2.90;1.93;;;7.40;99.90;;;;;;5047175;28;20471;-80
2023/12/22 00:54:24;;;;;;;2.97;2.03;;;7.70;99.90;;;;;;5049771;28;20436;-82
2023/12/22 00:57:23;;;;;;;1.77;1.63;;;7.40;99.90;;;;;;5051660;28;20479;-83
2023/12/22 01:00:12;;;;;;;3.33;1.67;;;7.70;99.90;;;;;;5034885;28;20453;-83
2023/12/22 01:02:54;;;;;;;5.23;1.70;;;7.60;99.90;;;;;;5047232;28;20452;-83
2023/12/22 01:05:39;;;;;;;2.63;1.60;;;7.70;99.90;;;;;;5036635;28;20467;-82
2023/12/22 01:08:15;;;;;;;2.03;1.70;;;7.70;99.90;;;;;;5026710;28;20445;-81
2023/12/22 01:10:56;;;;;;;2.03;1.83;;;7.40;99.90;;;;;;5025664;28;20475;-82
2023/12/22 01:13:42;;;;;;;4.53;1.80;;;7.70;99.90;;;;;;5023966;28;20441;-82
2023/12/22 01:16:21;;;;;;;3.40;1.83;;;7.70;99.90;;;;;;5021162;28;20555;-81
2023/12/22 01:18:59;;;;;;;4.00;1.90;;;7.70;99.90;;;;;;5021885;28;20991;-82
2023/12/22 01:21:38;;;;;;;2.40;2.00;;;7.70;99.90;;;;;;5022809;28;20990;-82
2023/12/22 01:24:21;;;;;;;3.30;2.00;;;7.90;99.90;;;;;;5022685;28;20515;-82
2023/12/22 01:27:02;;;;;;;4.17;2.10;;;7.70;99.90;;;;;;5024273;28;20457;-83
2023/12/22 01:29:38;;;;;;;1.73;1.60;;;7.80;99.90;;;;;;5021504;28;20518;-81
2023/12/22 01:32:08;;;;;;;2.20;1.50;;;7.50;99.90;;;;;;5019110;28;20459;-80
2023/12/22 01:34:46;;;;;;;4.40;2.27;;;7.90;99.90;;;;;;5019489;28;20455;-82
2023/12/22 01:37:24;;;;;;;5.53;2.13;;;7.90;99.90;;;;;;5021357;28;20501;-82
2023/12/22 01:40:25;;;;;;;12.13;1.83;;;7.90;99.90;;;;;;5021099;28;20509;-82
2023/12/22 01:43:00;;;;;;;2.47;1.60;;;7.90;99.90;;;;;;5021627;28;20456;-81
2023/12/22 01:45:43;;;;;;;;;;;;;;;;;;;;;
2023/12/22 01:48:22;;;;;;;2.00;1.73;;;7.90;99.90;;;;;;5021053;28;20444;-82
2023/12/22 01:50:58;;;;;;;1.80;1.10;;;8.00;99.90;;;;;;5020817;28;20477;-82
2023/12/22 01:53:36;;;;;;;4.90;1.37;;;8.00;99.90;;;;;;5020940;28;20455;-82
2023/12/22 01:56:37;;;;;;;1.40;1.30;;;8.00;99.90;;;;;;5021733;28;20476;-82
2023/12/22 01:59:21;;;;;;;2.30;1.27;;;8.00;99.90;;;;;;5025298;28;20455;-81
2023/12/22 02:02:02;;;;;;;3.77;1.10;;;8.00;99.90;;;;;;5025612;28;20493;-83
2023/12/22 02:10:37;;;;;;;2.30;1.20;;;8.00;99.90;;;;;;5028136;28;20468;-82
2023/12/22 02:13:15;;;;;;;1.97;1.33;;;8.00;99.90;;;;;;5026874;28;20467;-82
2023/12/22 02:15:51;;;;;;;5.40;1.30;;;7.90;99.90;;;;;;5026884;28;20463;-82
2023/12/22 02:18:51;;;;;;;1.47;1.37;;;7.90;99.90;;;;;;5026886;28;20455;-81
2023/12/22 02:21:41;;;;;;;1.80;1.30;;;8.00;99.90;;;;;;5011584;28;20470;-83
2023/12/22 02:24:18;;;;;;;1.20;1.13;;;8.00;99.90;;;;;;5026455;28;20451;-82
2023/12/22 02:27:05;;;;;;;1.20;1.20;;;7.70;99.90;;;;;;5025057;28;20432;-81
2023/12/22 02:29:48;;;;;;;1.10;0.87;;;8.00;99.90;;;;;;5025816;28;20455;-80
2023/12/22 02:32:57;;;;;;;1.23;1.10;;;8.00;99.90;;;;;;5025322;28;20477;-81
2023/12/22 02:35:44;;;;;;;1.30;1.20;;;7.90;99.90;;;;;;5024842;28;20458;-80
2023/12/22 02:38:29;;;;;;;1.67;1.33;;;8.00;99.90;;;;;;5024358;28;20509;-80
2023/12/22 02:41:17;;;;;;;3.23;1.70;;;8.00;99.90;;;;;;5025876;28;20492;-81
2023/12/22 02:44:08;;;;;;;2.87;1.40;;;8.00;99.90;;;;;;5025287;28;20453;-80
2023/12/22 02:46:50;;;;;;;2.90;1.63;;;8.30;99.90;;;;;;5025608;28;20502;-80
2023/12/22 02:49:35;;;;;;;3.40;1.40;;;8.00;99.90;;;;;;5026448;28;20457;-82
2023/12/22 02:54:52;;;;;;;3.33;1.47;;;8.10;99.90;;;;;;5024467;28;20464;-81
2023/12/22 02:57:45;;;;;;;3.23;1.10;;;8.10;99.90;;;;;;5025326;28;20479;-80
2023/12/22 03:00:29;;;;;;;1.63;1.50;;;8.20;99.90;;;;;;5024651;28;20465;-81
2023/12/22 03:06:09;;;;;;;1.80;1.10;;;8.30;99.90;;;;;;5025063;28;20984;-80
2023/12/22 03:08:41;;;;;;;3.93;2.10;;;8.20;99.90;;;;;;5025742;28;20452;-82
2023/12/22 03:11:35;;;;;;;2.30;1.40;;;8.30;99.90;;;;;;5020098;28;20468;-81
2023/12/22 03:14:38;;;;;;;1.83;1.63;;;8.30;99.90;;;;;;5022734;28;20448;-82
2023/12/22 03:17:26;;;;;;;3.47;1.50;;;8.20;99.90;;;;;;5022726;28;21038;-82
2023/12/22 03:20:04;;;;;;;2.00;1.53;;;8.30;99.90;;;;;;5022121;28;20460;-81
2023/12/22 03:23:02;;;;;;;2.03;1.43;;;8.40;99.90;;;;;;5020917;28;20476;-81
2023/12/22 03:25:58;;;;;;;3.53;1.53;;;8.10;99.90;;;;;;5017550;28;20449;-81
2023/12/22 03:28:40;;;;;;;2.80;1.63;;;8.70;99.90;;;;;;5018707;28;20447;-81
2023/12/22 03:31:19;;;;;;;4.60;2.00;;;8.50;99.90;;;;;;5017157;28;20462;-81
2023/12/22 03:34:08;;;;;;;2.03;1.30;;;8.40;99.90;;;;;;5018204;28;20459;-81
2023/12/22 03:36:48;;;;;;;1.83;1.33;;;8.50;99.90;;;;;;5018720;28;20483;-81
2023/12/22 03:39:33;;;;;;;3.50;1.30;;;8.40;99.90;;;;;;5019396;28;20454;-80
2023/12/22 03:42:12;;;;;;;2.50;1.30;;;8.50;99.90;;;;;;5019363;28;20475;-80
2023/12/22 03:44:59;;;;;;;1.80;1.00;;;8.50;99.90;;;;;;5018712;28;20501;-81
2023/12/22 03:53:51;;;;;;;2.93;1.90;;;8.50;99.90;;;;;;5001699;28;20830;-81
2023/12/22 03:56:20;;;;;;;3.13;1.93;;;8.30;99.90;;;;;;5020432;28;20488;-80
2023/12/22 03:59:04;;;;;;;1.70;1.03;;;8.40;99.90;;;;;;5019729;28;20445;-80
2023/12/22 04:01:47;;;;;;;2.13;1.50;;;8.50;99.90;;;;;;5019331;28;21161;-80
2023/12/22 04:04:27;;;;;;;3.70;1.60;;;8.10;99.90;;;;;;5021384;28;21076;-82
2023/12/22 04:09:55;;;;;;;1.77;1.23;;;7.80;99.90;;;;;;5018628;28;20515;-82
2023/12/22 04:12:31;;;;;;;7.70;1.80;;;7.70;99.90;;;;;;5024026;28;20453;-82
2023/12/22 04:15:17;;;;;;;4.63;2.03;;;7.60;99.90;;;;;;5024340;28;20503;-81
2023/12/22 04:18:09;;;;;;;4.27;2.27;;;7.60;99.90;;;;;;5024112;28;20500;-81
2023/12/22 04:20:53;;;;;;;4.23;1.83;;;7.50;99.90;;;;;;5023081;28;20460;-81
2023/12/22 04:23:25;;;;;;;2.53;2.10;;;7.50;99.90;;;;;;5020510;28;20424;-81
2023/12/22 04:26:02;;;;;;;3.13;1.73;;;7.50;99.90;;;;;;5018729;28;20886;-81
2023/12/22 04:28:36;;;;;;;5.10;1.70;;;7.40;99.90;;;;;;5018622;28;20478;-80
2023/12/22 04:31:09;;;;;;;5.97;1.87;;;7.50;99.90;;;;;;5017330;28;20509;-81
2023/12/22 04:33:43;;;;;;;5.17;1.80;;;7.60;99.90;;;;;;5020148;28;20440;-80
2023/12/22 04:36:22;;;;;;;4.23;1.40;;;7.60;99.90;;;;;;5020904;28;20481;-82
2023/12/22 04:38:55;;;;;;;3.23;1.87;;;7.70;99.90;;;;;;5022282;28;20536;-81
2023/12/22 04:41:24;;;;;;;4.53;1.77;;;7.80;99.90;;;;;;5023796;28;20508;-82
2023/12/22 04:44:05;;;;;;;4.40;1.50;;;7.80;99.90;;;;;;5025250;28;20533;-81
2023/12/22 04:46:48;;;;;;;3.50;1.33;;;7.90;99.90;;;;;;5025613;28;20452;-81
2023/12/22 04:49:34;;;;;;;4.83;1.60;;;8.00;99.90;;;;;;5025962;28;20435;-81
2023/12/22 04:52:32;;;;;;;1.47;1.37;;;8.00;99.90;;;;;;5025830;28;20474;-81
2023/12/22 04:55:51;;;;;;;1.67;1.40;;;7.70;99.90;;;;;;5025364;28;20443;-81
2023/12/22 04:58:55;;;;;;;3.03;1.50;;;8.00;99.90;;;;;;5025137;28;20475;-81
2023/12/22 05:01:35;;;;;;;6.83;1.50;;;8.00;99.90;;;;;;5026431;28;20464;-80
2023/12/22 05:04:17;;;;;;;1.60;1.30;;;8.00;99.90;;;;;;5025610;28;20464;-81
2023/12/22 05:07:23;;;;;;;1.93;1.27;;;8.00;99.90;;;;;;5005974;28;20446;-81
2023/12/22 05:10:41;;;;;;;5.13;2.27;;;8.00;99.90;;;;;;5020315;28;20451;-82
2023/12/22 05:13:42;;;;;;;3.00;1.90;;;8.10;99.90;;;;;;5010683;28;20490;-80
2023/12/22 05:16:49;;;;;;;3.90;1.97;;;8.00;99.90;;;;;;5007657;28;20454;-81
2023/12/22 05:22:46;;;;;;;4.30;1.93;;;8.20;99.90;;;;;;5024666;28;20440;-82
2023/12/22 05:25:47;;;;;;;6.73;2.50;;;8.10;99.90;;;;;;5025415;28;20433;-81
2023/12/22 05:28:49;;;;;;;4.93;2.20;;;8.10;99.90;;;;;;5025117;28;20480;-82
2023/12/22 05:31:47;;;;;;;7.90;2.07;;;8.10;99.90;;;;;;5029670;28;20500;-80
2023/12/22 05:34:45;;;;;;;5.33;2.10;;;7.90;99.90;;;;;;5027441;28;20507;-81
2023/12/22 05:37:32;;;;;;;4.40;1.93;;;7.90;99.90;;;;;;5031202;28;20468;-81
2023/12/22 05:40:21;;;;;;;5.70;2.27;;;8.10;99.90;;;;;;5029379;28;20550;-81
2023/12/22 05:43:22;;;;;;;8.80;2.70;;;8.10;99.90;;;;;;5029858;28;20476;-81
2023/12/22 05:46:31;;;;;;;4.37;2.13;;;7.70;99.90;;;;;;5017758;28;20452;-82
2023/12/22 05:49:27;;;;;;;6.37;2.30;;;8.00;99.90;;;;;;5028598;28;20472;-81
2023/12/22 05:52:23;;;;;;;5.10;2.03;;;7.90;99.90;;;;;;5010459;28;20524;-81
2023/12/22 05:55:15;;;;;;;7.20;1.70;;;8.00;99.90;;;;;;5022905;28;20431;-82
2023/12/22 05:57:54;;;;;;;5.40;1.93;;;8.10;99.90;;;;;;5025270;28;20481;-81
2023/12/22 06:00:39;;;;;;;6.80;2.03;;;8.20;99.90;;;;;;5028137;28;20481;-81
2023/12/22 06:03:40;;;;;;;6.00;2.33;;;8.30;99.90;;;;;;5027678;28;20459;-80
2023/12/22 06:06:19;;;;;;;6.40;2.17;;;8.30;99.90;;;;;;5030363;28;21003;-81
2023/12/22 06:09:01;;;;;;;3.70;1.70;;;8.40;99.90;;;;;;5010567;28;20495;-81
2023/12/22 06:12:02;;;;;;;5.37;2.53;;;8.50;99.90;;;;;;5008935;28;20467;-82
2023/12/22 06:15:01;;;;;;;4.90;1.77;;;8.50;99.90;;;;;;5022882;28;20490;-83
2023/12/22 06:17:58;;;;;;;6.10;2.13;;;8.50;99.90;;;;;;5029168;28;20476;-82
2023/12/22 06:20:54;;;;;;;7.50;2.60;;;8.50;99.90;;;;;;5029109;28;20557;-81
2023/12/22 06:23:37;;;;;;;7.03;2.33;;;8.50;99.90;;;;;;5029429;28;20478;-82
2023/12/22 06:26:31;;;;;;;6.00;2.07;;;8.50;99.90;;;;;;5030150;28;20458;-82
2023/12/22 06:32:17;;;;;;;5.20;2.30;;;8.50;99.90;;;;;;5024708;28;20480;-82
2023/12/22 06:35:24;;;;;;;4.70;1.93;;;8.50;99.90;;;;;;5028824;28;21104;-81
2023/12/22 06:38:41;;;;;;;10.00;3.30;;;8.50;99.90;;;;;;5027127;28;20533;-81
2023/12/22 06:41:44;;;;;;;3.83;2.17;;;8.50;99.90;;;;;;5027541;28;20473;-81
2023/12/22 06:44:29;;;;;;;8.43;2.20;;;8.50;99.90;;;;;;5013102;28;20702;-84
2023/12/22 06:53:29;;;;;;;5.57;2.27;;;8.50;99.90;;;;;;5029034;28;20444;-82
2023/12/22 06:56:28;;;;;;;4.23;1.90;;;8.50;99.90;;;;;;5026392;28;20445;-83
2023/12/22 06:59:17;;;;;;;6.37;2.70;;;8.50;99.90;;;;;;5031079;28;20535;-83
2023/12/22 07:02:11;;;;;;;7.03;2.40;;;8.50;99.90;;;;;;5031575;28;20539;-81
2023/12/22 07:12:03;;;;;;;4.77;2.07;;;8.50;99.90;;;;;;5004617;28;20548;-82
2023/12/22 07:18:11;;;;;;;7.13;2.23;;;8.70;99.90;;;;;;5022761;28;20489;-86
2023/12/22 07:20:40;;;;;;;6.47;2.20;;;8.20;99.90;;;;;;5022078;28;20493;-82
2023/12/22 07:23:18;;;;;;;2.83;1.73;;;8.40;99.90;;;;;;5028714;28;20487;-83
2023/12/22 07:26:21;;;;;;;5.67;1.90;;;8.40;99.90;;;;;;5026870;28;20450;-81
2023/12/22 07:29:02;;;;;;;8.10;2.87;;;8.40;99.90;;;;;;5022423;28;20449;-85
2023/12/22 07:32:02;;;;;;;4.03;2.60;;;8.40;99.90;;;;;;5026176;28;20474;-83
2023/12/22 07:34:56;;;;;;;2.73;1.90;;;8.30;99.90;;;;;;5025254;28;20449;-87
2023/12/22 07:38:09;;;;;;;4.73;2.17;;;8.40;99.90;;;;;;5033193;28;20476;-83
2023/12/22 07:40:56;;;;;;;2.83;2.00;;;8.40;99.90;;;;;;5032196;28;20471;-83
2023/12/22 07:43:42;;;;;;;;;;;;;;;;;;;;;
2023/12/22 07:46:34;;;;;;;5.60;1.83;;;8.60;99.90;;;;;;5034339;28;20446;-86
2023/12/22 07:49:15;;;;;;;6.40;2.10;;;8.40;99.90;;;;;;5014186;28;20429;-80
2023/12/22 07:52:05;;;;;;;3.73;1.60;;;8.40;99.90;;;;;;5028745;28;20526;-84
2023/12/22 07:55:09;;;;;;;;;;;;;;;;;;;;;
2023/12/22 07:57:54;;;;;;;2.63;2.20;;;8.40;99.90;;;;;;5034328;28;20467;-83
2023/12/22 08:00:26;;;;;;;5.10;2.43;;;8.40;99.90;;;;;;5033625;28;20453;-81
2023/12/22 08:03:05;;;;;;;4.23;1.97;;;8.40;99.90;;;;;;5030562;28;20521;-84
2023/12/22 08:06:00;;;;;;;4.43;1.70;;;8.30;99.90;;;;;;5025711;28;20508;-84
2023/12/22 08:08:46;;;;;;;5.97;2.13;;;8.30;99.90;;;;;;5023429;28;20533;-83
2023/12/22 08:11:36;;;;;;;5.70;2.17;;;8.20;99.90;;;;;;5023271;28;20538;-84
2023/12/22 08:14:45;;;;;;;4.37;2.30;;;8.10;99.90;;;;;;5023760;28;20515;-84
2023/12/22 08:17:31;;;;;;;6.80;2.20;;;7.90;99.90;;;;;;5024615;28;20487;-82
2023/12/22 08:20:22;;;;;;;4.10;1.80;;;7.50;99.90;;;;;;5020637;28;20498;-81
2023/12/22 08:23:02;;;;;;;4.80;1.60;;;7.70;99.90;;;;;;5019862;28;20957;-81
2023/12/22 08:25:49;;;;;;;3.23;2.27;;;7.70;99.90;;;;;;5017747;28;20455;-82
2023/12/22 08:28:31;;;;;;;3.30;1.50;;;7.60;99.90;;;;;;5015714;28;20476;-81
2023/12/22 08:31:23;;;;;;;3.23;1.90;;;7.60;99.90;;;;;;5016567;28;20886;-83
2023/12/22 08:34:12;;;;;;;5.00;1.83;;;7.60;99.90;;;;;;5016552;28;20443;-81
2023/12/22 08:37:06;;;;;;;7.73;2.40;;;7.50;99.90;;;;;;5016040;28;20475;-80
2023/12/22 08:39:55;;;;;;;5.90;2.50;;;7.30;99.90;;;;;;5017146;28;20504;-81
2023/12/22 08:42:41;;;;;;;6.07;2.40;;;7.60;99.90;;;;;;5019927;28;20480;-79
2023/12/22 08:45:20;;;;;;;5.70;2.20;;;7.70;99.90;;;;;;5006357;28;20896;-83
2023/12/22 08:48:17;;;;;;;5.73;2.90;;;7.70;99.90;;;;;;5019850;28;20440;-82
2023/12/22 08:50:54;;;;;;;6.87;3.60;;;7.80;99.90;;;;;;4971359;28;20535;-82
2023/12/22 08:53:43;;;;;;;7.27;2.57;;;7.90;99.90;;;;;;5006609;28;20428;-84
2023/12/22 09:02:36;;;;;;;;;;;;;;;;;;;;;
2023/12/22 09:05:20;;;;;;;8.13;2.80;;;8.00;99.90;;;;;;5023536;28;20462;-85
2023/12/22 09:08:02;;;;;;;7.20;2.90;;;7.80;99.90;;;;;;5047914;28;20454;-82
2023/12/22 09:10:50;;;;;;;7.60;3.73;;;8.10;99.90;;;;;;5033922;28;21067;-85
2023/12/22 09:13:33;;;;;;;7.03;1.97;;;8.10;99.90;;;;;;5029680;28;20435;-80
2023/12/22 09:16:04;;;;;;;7.40;2.90;;;8.20;99.90;;;;;;5026911;28;20437;-82
2023/12/22 09:18:44;;;;;;;9.53;2.73;;;8.10;99.90;;;;;;5027915;28;20525;-84
2023/12/22 09:24:48;;;;;;;9.20;4.00;;;8.40;99.90;;;;;;5018107;28;20623;-82
2023/12/22 09:27:39;;;;;;;4.97;1.73;;;8.50;99.90;;;;;;5030920;28;20450;-83
2023/12/22 09:30:29;;;;;;;8.33;2.60;;;8.20;99.90;;;;;;5031078;28;20498;-82
2023/12/22 09:33:04;;;;;;;8.63;2.80;;;8.20;99.90;;;;;;5029286;28;20511;-82
2023/12/22 09:35:42;;;;;;;9.77;3.10;;;8.50;99.90;;;;;;5028616;28;20474;-85
2023/12/22 09:38:25;;;;;;;8.33;3.10;;;8.50;99.90;;;;;;5027764;28;20489;-85
2023/12/22 09:41:29;;;;;;;9.20;2.57;;;8.50;99.90;;;;;;5028541;28;20480;-82
2023/12/22 09:47:14;;;;;;;8.20;3.23;;;8.60;99.90;;;;;;5015730;28;20622;-87
2023/12/22 09:50:00;;;;;;;7.20;2.80;;;8.60;99.90;;;;;;5026529;28;20528;-84
2023/12/22 09:53:08;;;;;;;;;;;;;;;;;;;;;
2023/12/22 09:56:03;;;;;;;6.80;2.53;;;8.70;99.90;;;;;;5010308;28;20473;-85
2023/12/22 09:58:37;;;;;;;4.87;2.80;;;8.70;99.90;;;;;;5027929;28;20477;-81
2023/12/22 10:01:23;;;;;;;9.40;3.00;;;8.70;99.90;;;;;;5027067;28;20500;-82
2023/12/22 10:04:14;;;;;;;6.97;2.70;;;8.70;99.90;;;;;;5028768;28;20453;-82
2023/12/22 10:07:33;;;;;;;12.10;3.50;;;8.80;99.90;;;;;;5027825;28;20453;-84
2023/12/22 10:10:19;;;;;;;8.80;2.67;;;8.80;99.90;;;;;;5029283;28;20618;-85
2023/12/22 10:13:11;;;;;;;9.30;2.93;;;9.00;99.90;;;;;;5024278;28;20434;-86
2023/12/22 10:16:10;;;;;;;8.60;3.67;;;8.70;99.90;;;;;;5030130;28;20440;-85
2023/12/22 10:18:52;;;;;;;10.97;3.20;;;8.80;99.90;;;;;;5030144;28;20477;-83
2023/12/22 10:22:10;;;;;;;9.70;3.10;;;8.80;99.90;;;;;;5032114;28;20494;-83
2023/12/22 10:24:50;;;;;;;13.37;3.40;;;8.80;99.90;;;;;;5023163;28;20530;-88
2023/12/22 10:27:26;;;;;;;8.00;3.90;;;8.90;99.90;;;;;;5022832;28;20435;-84
2023/12/22 10:30:28;;;;;;;;;;;;;;;;;;;;;
2023/12/22 10:33:08;;;;;;;10.60;3.10;;;8.60;99.90;;;;;;5032520;28;20445;-84
2023/12/22 10:35:57;;;;;;;6.03;2.87;;;9.20;99.90;;;;;;5032993;28;20445;-85
2023/12/22 10:41:49;;;;;;;10.77;2.73;;;9.00;99.90;;;;;;5024384;28;20793;-83
2023/12/22 10:47:29;;;;;;;8.03;2.40;;;9.10;99.90;;;;;;5003825;28;20530;-83
2023/12/22 10:53:01;;;;;;;5.03;2.80;;;8.70;99.90;;;;;;5028428;28;20473;-82
2023/12/22 10:56:10;;;;;;;6.50;2.70;;;9.00;99.90;;;;;;5034656;28;20432;-83
2023/12/22 10:59:02;;;;;;;4.70;2.10;;;9.00;99.90;;;;;;5028508;28;20498;-85
2023/12/22 11:07:53;;;;;;;5.83;2.50;;;9.00;99.90;;;;;;5026968;28;20444;-82
2023/12/22 11:10:45;;;;;;;5.40;1.50;;;8.90;99.90;;;;;;5025979;28;20463;-82
2023/12/22 11:13:25;;;;;;;3.83;1.63;;;8.90;99.90;;;;;;5023097;28;20462;-82
2023/12/22 11:16:09;;;;;;;3.80;1.60;;;8.90;99.90;;;;;;5029681;28;20513;-83
2023/12/22 11:21:32;;;;;;;2.50;1.97;;;8.60;99.90;;;;;;5030180;28;20459;-85
2023/12/22 11:24:13;;;;;;;6.57;1.87;;;8.50;99.90;;;;;;5033397;28;20442;-84
2023/12/22 11:27:14;;;;;;;3.23;1.70;;;8.80;99.90;;;;;;5034796;28;20447;-85
2023/12/22 11:29:57;;;;;;;4.63;2.07;;;8.60;99.90;;;;;;5028757;28;20452;-83
2023/12/22 11:32:49;;;;;;;4.10;2.00;;;8.70;99.90;;;;;;5031413;28;20440;-84
2023/12/22 11:41:28;;;;;;;1.90;1.77;;;8.60;99.90;;;;;;5026285;28;20467;-86
2023/12/22 11:44:09;;;;;;;2.83;1.63;;;8.50;99.90;;;;;;5029760;28;20447;-83
2023/12/22 11:46:52;;;;;;;2.77;1.43;;;8.50;99.90;;;;;;5024438;28;20459;-83
2023/12/22 11:49:42;;;;;;;2.80;1.80;;;8.50;99.90;;;;;;5023197;28;20447;-84
2023/12/22 11:52:33;;;;;;;4.80;1.53;;;8.40;99.90;;;;;;5025676;28;20474;-85
2023/12/22 11:55:09;;;;;;;2.50;1.47;;;8.10;99.90;;;;;;5024389;28;20450;-85
2023/12/22 11:57:47;;;;;;;1.67;1.23;;;8.40;99.90;;;;;;5023033;28;20556;-85
2023/12/22 12:00:54;;;;;;;3.07;2.10;;;8.30;99.90;;;;;;5023346;28;20946;-81
2023/12/22 12:03:25;;;;;;;5.50;1.77;;;8.20;99.90;;;;;;5019246;28;20527;-84
2023/12/22 12:06:29;;;;;;;2.87;1.30;;;8.20;99.90;;;;;;5023709;28;20445;-84
2023/12/22 12:09:03;;;;;;;1.20;1.20;;;7.90;99.90;;;;;;5008677;28;20448;-84
2023/12/22 12:12:17;;;;;;;1.27;1.20;;;7.90;99.90;;;;;;5022596;28;20618;-84
2023/12/22 12:14:51;;;;;;;1.50;1.30;;;8.20;99.90;;;;;;5021632;28;20868;-83
2023/12/22 12:17:20;;;;;;;2.47;1.20;;;8.20;99.90;;;;;;5020123;28;20431;-82
2023/12/22 12:19:59;;;;;;;1.53;1.43;;;8.10;99.90;;;;;;5021102;28;20890;-82
2023/12/22 12:22:32;;;;;;;2.70;1.80;;;8.20;99.90;;;;;;5015562;28;20456;-85
2023/12/22 12:25:04;;;;;;;1.17;1.07;;;8.20;99.90;;;;;;5022024;28;20868;-84
2023/12/22 12:27:36;;;;;;;2.07;1.30;;;8.20;99.90;;;;;;5023833;28;20513;-85
2023/12/22 12:30:17;;;;;;;1.37;1.20;;;8.20;99.90;;;;;;5025032;28;20459;-83
2023/12/22 12:32:51;;;;;;;2.10;1.33;;;8.20;99.90;;;;;;5023571;28;20458;-82
2023/12/22 12:35:29;;;;;;;1.50;1.40;;;8.10;99.90;;;;;;5023473;28;20450;-83
2023/12/22 12:37:57;;;;;;;1.57;1.30;;;8.20;99.90;;;;;;5021537;28;20965;-84
2023/12/22 12:40:32;;;;;;;1.53;1.43;;;8.20;99.90;;;;;;5021414;28;20511;-83
2023/12/22 12:43:15;;;;;;;1.23;1.23;;;8.50;99.90;;;;;;5021603;28;20916;-82
2023/12/22 12:45:44;;;;;;;1.33;1.20;;;8.30;99.90;;;;;;5022372;28;20546;-82
2023/12/22 12:48:17;;;;;;;1.00;1.00;;;8.30;99.90;;;;;;5025259;28;20532;-81
2023/12/22 12:50:47;;;;;;;2.40;1.10;;;8.30;99.90;;;;;;5019994;28;20509;-82
2023/12/22 12:53:16;;;;;;;2.20;1.43;;;8.20;99.90;;;;;;5023692;28;20472;-82
2023/12/22 12:55:58;;;;;;;1.93;1.40;;;8.30;99.90;;;;;;5023043;28;20442;-84
2023/12/22 12:58:39;;;;;;;1.33;0.90;;;8.30;99.90;;;;;;5013871;28;20443;-83
2023/12/22 13:01:11;;;;;;;2.10;1.30;;;8.30;99.90;;;;;;5017098;28;20546;-85
2023/12/22 13:03:58;;;;;;;1.63;1.17;;;8.30;99.90;;;;;;5021913;28;20467;-82
2023/12/22 13:06:26;;;;;;;1.10;1.00;;;8.30;99.90;;;;;;5020547;28;20812;-86
2023/12/22 13:08:55;;;;;;;0.97;0.97;;;8.60;99.90;;;;;;5020418;28;20422;-83
2023/12/22 13:11:27;;;;;;;1.10;1.10;;;8.40;99.90;;;;;;5022766;28;20531;-85
2023/12/22 13:14:40;;;;;;;0.83;0.83;;;8.40;99.90;;;;;;5022451;28;20446;-83
2023/12/22 13:17:46;;;;;;;2.00;1.00;;;8.10;99.90;;;;;;5018947;28;20459;-84
2023/12/22 13:20:39;;;;;;;1.10;1.10;;;8.40;99.90;;;;;;5002413;28;20483;-85
2023/12/22 13:23:32;;;;;;;1.23;1.13;;;8.50;99.90;;;;;;5020442;28;20472;-83
2023/12/22 13:26:21;;;;;;;0.63;0.63;;;8.60;99.90;;;;;;5016404;28;20441;-85
2023/12/22 13:29:17;;;;;;;1.77;0.67;;;8.80;99.90;;;;;;5020019;28;20452;-83
2023/12/22 13:39:06;;;;;;;;;;;;;;;;;;;;;
2023/12/22 13:41:45;;;;;;;0.60;0.60;;;9.40;99.90;;;;;;5020225;28;20473;-84
2023/12/22 13:44:23;;;;;;;0.60;0.60;;;9.50;99.90;;;;;;5023426;28;20457;-86
2023/12/22 13:46:54;;;;;;;0.70;0.70;;;9.50;99.90;;;;;;5027498;28;20805;-86
2023/12/22 13:49:28;;;;;;;1.17;0.50;;;9.60;99.90;;;;;;5023969;28;20554;-85
2023/12/22 13:52:07;;;;;;;0.60;0.60;;;9.60;99.90;;;;;;5025308;28;20562;-84
2023/12/22 13:54:56;;;;;;;0.80;0.80;;;9.60;99.90;;;;;;5017472;28;20733;-83
2023/12/22 14:14:50;;;;;;;0.63;0.63;;;9.80;99.90;;;;;;4924794;29;20526;-86
2023/12/22 14:24:25;;;;;;;0.70;0.70;;;10.10;99.90;;;;;;4998734;28;20464;-85
2023/12/22 14:30:15;;;;;;;1.43;0.53;;;10.10;99.90;;;;;;5028340;28;20581;-84
2023/12/22 14:33:00;;;;;;;1.23;0.87;;;10.30;99.90;;;;;;5027405;28;20545;-80
2023/12/22 14:35:28;;;;;;;0.80;0.80;;;10.30;99.90;;;;;;5026824;28;20447;-84
2023/12/22 14:38:14;;;;;;;0.53;0.53;;;10.10;99.90;;;;;;5027634;28;20474;-85
2023/12/22 14:40:50;;;;;;;0.80;0.80;;;10.10;99.90;;;;;;5025634;28;20489;-83
2023/12/22 14:43:34;;;;;;;0.60;0.60;;;10.20;99.90;;;;;;5026040;28;20431;-84
2023/12/22 14:46:13;;;;;;;1.03;0.63;;;10.20;99.90;;;;;;5027550;28;20431;-86
2023/12/22 14:49:02;;;;;;;0.70;0.70;;;9.90;99.90;;;;;;5026800;28;20471;-85
2023/12/22 14:51:53;;;;;;;0.60;0.60;;;10.20;99.90;;;;;;5023215;28;20471;-84
2023/12/22 14:54:29;;;;;;;0.70;0.70;;;10.20;99.90;;;;;;5026592;28;20512;-82
2023/12/22 14:57:29;;;;;;;1.10;1.10;;;10.40;99.90;;;;;;5024969;28;20848;-83
2023/12/22 15:00:09;;;;;;;0.80;0.80;;;10.20;99.90;;;;;;5023775;28;20475;-82
2023/12/22 15:02:45;;;;;;;0.70;0.70;;;10.30;99.90;;;;;;5025309;28;20443;-81
2023/12/22 15:05:31;;;;;;;0.67;0.67;;;10.30;99.90;;;;;;5026668;28;20455;-85
2023/12/22 15:08:02;;;;;;;0.80;0.80;;;10.50;99.90;;;;;;5022746;28;20549;-82
2023/12/22 15:11:01;;;;;;;0.87;0.87;;;10.40;99.90;;;;;;5025524;28;20720;-85
2023/12/22 15:13:55;;;;;;;0.60;0.60;;;10.10;99.90;;;;;;5025767;28;20455;-85
2023/12/22 15:16:50;;;;;;;0.90;0.90;;;10.00;99.90;;;;;;5027754;28;20459;-83
2023/12/22 15:19:28;;;;;;;0.50;0.50;;;10.20;99.90;;;;;;5017172;28;20886;-81
2023/12/22 15:22:13;;;;;;;3.07;0.83;;;10.00;99.90;;;;;;5029392;28;20498;-83
2023/12/22 15:25:14;;;;;;;0.80;0.80;;;10.20;99.90;;;;;;5025749;28;20482;-82
2023/12/22 15:27:51;;;;;;;0.63;0.63;;;10.20;99.90;;;;;;5026296;28;20454;-85
2023/12/22 15:30:44;;;;;;;0.50;0.50;;;10.20;99.90;;;;;;5024905;28;20475;-84
2023/12/22 15:33:30;;;;;;;0.73;0.73;;;10.30;99.90;;;;;;5025525;28;20644;-85
2023/12/22 15:36:05;;;;;;;0.90;0.90;;;10.30;99.90;;;;;;5027293;28;20508;-86
2023/12/22 15:38:45;;;;;;;0.70;0.70;;;10.20;99.90;;;;;;5026652;28;20478;-83
2023/12/22 15:41:28;;;;;;;0.83;0.80;;;10.30;99.90;;;;;;5027184;28;20487;-85
2023/12/22 15:44:43;;;;;;;0.80;0.80;;;10.50;99.90;;;;;;5029510;28;20518;-85
2023/12/22 15:47:50;;;;;;;1.03;0.80;;;10.30;99.90;;;;;;5026471;28;20436;-82
2023/12/22 15:50:53;;;;;;;0.70;0.60;;;10.30;99.90;;;;;;5012494;28;20490;-81
2023/12/22 15:54:03;;;;;;;;;;;;;;;;;;;;;
2023/12/22 15:56:56;;;;;;;0.60;0.60;;;10.40;99.90;;;;;;5010384;28;20442;-87
2023/12/22 16:02:25;;;;;;;0.70;0.70;;;10.40;99.90;;;;;;5034536;28;20451;-86
2023/12/22 16:08:19;;;;;;;0.80;0.80;;;10.40;99.90;;;;;;5028117;28;20447;-82
2023/12/22 16:13:58;;;;;;;1.00;1.00;;;10.40;99.90;;;;;;5015445;28;20450;-86
2023/12/22 16:16:48;;;;;;;1.27;0.80;;;10.50;99.90;;;;;;5023814;28;20486;-85
2023/12/22 16:19:28;;;;;;;0.73;0.63;;;10.40;99.90;;;;;;5019786;28;20442;-84
2023/12/22 16:22:09;;;;;;;0.73;0.73;;;10.40;99.90;;;;;;5020517;28;20529;-83
2023/12/22 16:25:04;;;;;;;0.80;0.80;;;10.50;99.90;;;;;;5020457;28;20459;-82
2023/12/22 16:31:22;;;;;;;;;;;;;;;;;;;;;
2023/12/22 16:33:58;;;;;;;0.80;0.80;;;10.40;99.90;;;;;;5019712;28;20975;-84
2023/12/22 16:36:40;;;;;;;1.73;0.80;;;10.40;99.90;;;;;;5021023;28;20447;-82
2023/12/22 16:39:21;;;;;;;1.00;1.00;;;10.40;99.90;;;;;;5021397;28;20932;-83
2023/12/22 16:42:16;;;;;;;0.60;0.60;;;10.40;99.90;;;;;;5020580;28;20884;-81
2023/12/22 16:45:08;;;;;;;1.00;1.00;;;10.60;99.90;;;;;;5021022;28;20666;-82
2023/12/22 16:47:51;;;;;;;1.00;0.80;;;10.20;99.90;;;;;;5022674;28;20984;-86
2023/12/22 16:50:43;;;;;;;1.10;1.10;;;10.40;99.90;;;;;;5022225;28;20473;-85
2023/12/22 16:53:18;;;;;;;1.03;0.77;;;10.40;99.90;;;;;;5025298;28;20428;-84
2023/12/22 16:55:59;;;;;;;0.70;0.70;;;10.40;99.90;;;;;;5025278;28;20451;-84
2023/12/22 16:58:34;;;;;;;0.60;0.60;;;10.40;99.90;;;;;;5031988;28;20489;-82
2023/12/22 17:01:05;;;;;;;0.90;0.90;;;10.40;99.90;;;;;;5024085;28;20479;-85
2023/12/22 17:03:45;;;;;;;0.63;0.63;;;10.40;99.90;;;;;;5028796;28;20455;-86